Time;durP1;ratioP1;P1;durP2;ratioP2;P2;SDS_P1;SDS_P2;PMS_P1;PMS_P2;Temp;Humidity;BMP_temperature;BMP_pressure;BME280_temperature;BME280_humidity;BME280_pressure;Samples;Min_cycle;Max_cycle;Signal;HPM_P1;HPM_P2
2020/12/21 00:01:56;;;;;;;20.87;6.07;;;;;;;;;;5012521;28;20220;-72
2020/12/21 00:04:22;;;;;;;23.10;5.90;;;;;;;;;;5021333;28;20189;-72
2020/12/21 00:06:54;;;;;;;25.77;6.90;;;;;;;;;;5023001;28;20625;-72
2020/12/21 00:09:21;;;;;;;19.40;6.43;;;;;;;;;;5011090;28;20289;-72
2020/12/21 00:11:46;;;;;;;32.93;9.33;;;;;;;;;;5025597;28;20200;-73
2020/12/21 00:14:12;;;;;;;19.53;5.67;;;;;;;;;;5017160;28;20217;-72
2020/12/21 00:16:39;;;;;;;17.13;6.40;;;;;;;;;;5029288;28;20561;-74
2020/12/21 00:19:05;;;;;;;15.67;6.10;;;;;;;;;;5019658;28;20248;-75
2020/12/21 00:21:30;;;;;;;23.33;6.67;;;;;;;;;;5031336;28;20187;-74
2020/12/21 00:23:56;;;;;;;16.93;6.17;;;;;;;;;;5023029;28;20185;-74
2020/12/21 00:26:21;;;;;;;19.47;5.73;;;;;;;;;;5030105;28;20692;-74
2020/12/21 00:28:46;;;;;;;21.63;7.07;;;;;;;;;;5020976;28;20186;-74
2020/12/21 00:31:11;;;;;;;16.30;5.97;;;;;;;;;;5031628;28;20672;-74
2020/12/21 00:33:37;;;;;;;24.33;6.03;;;;;;;;;;5033021;28;20229;-74
2020/12/21 00:36:05;;;;;;;21.23;6.40;;;;;;;;;;5029091;28;20190;-72
2020/12/21 00:38:30;;;;;;;22.07;5.57;;;;;;;;;;5024004;28;20190;-72
2020/12/21 00:40:55;;;;;;;22.70;6.43;;;;;;;;;;5014298;28;20645;-73
2020/12/21 00:43:21;;;;;;;18.40;5.67;;;;;;;;;;5025068;28;20189;-73
2020/12/21 00:45:46;;;;;;;17.87;6.03;;;;;;;;;;5021172;28;20189;-74
2020/12/21 00:48:11;;;;;;;22.20;6.30;;;;;;;;;;5025952;28;20198;-73
2020/12/21 00:50:37;;;;;;;18.77;6.50;;;;;;;;;;5018818;28;20226;-73
2020/12/21 00:53:02;;;;;;;23.53;6.70;;;;;;;;;;5025431;28;20201;-73
2020/12/21 00:55:27;;;;;;;22.73;6.30;;;;;;;;;;5016564;28;20568;-73
2020/12/21 00:57:53;;;;;;;28.27;6.50;;;;;;;;;;5023123;28;20644;-73
2020/12/21 01:00:18;;;;;;;19.97;6.57;;;;;;;;;;5021063;28;20260;-73
2020/12/21 01:02:44;;;;;;;20.57;6.77;;;;;;;;;;5022977;28;20190;-74
2020/12/21 01:05:10;;;;;;;21.57;6.90;;;;;;;;;;5022249;28;20673;-74
2020/12/21 01:07:35;;;;;;;26.53;7.40;;;;;;;;;;5026065;28;20241;-74
2020/12/21 01:10:00;;;;;;;16.43;6.03;;;;;;;;;;5031150;28;20272;-74
2020/12/21 01:12:27;;;;;;;25.00;6.17;;;;;;;;;;5016981;28;20194;-73
2020/12/21 01:14:53;;;;;;;20.40;6.27;;;;;;;;;;5031236;28;20833;-73
2020/12/21 01:17:18;;;;;;;21.10;6.83;;;;;;;;;;5020813;28;20226;-74
2020/12/21 01:19:43;;;;;;;17.83;6.60;;;;;;;;;;5027169;28;20540;-73
2020/12/21 01:22:09;;;;;;;20.73;6.60;;;;;;;;;;5018519;28;20236;-73
2020/12/21 01:24:34;;;;;;;23.73;6.83;;;;;;;;;;5029781;28;20192;-73
2020/12/21 01:26:59;;;;;;;20.37;6.30;;;;;;;;;;5017552;28;20197;-73
2020/12/21 01:29:25;;;;;;;22.93;7.23;;;;;;;;;;5029874;28;20632;-73
2020/12/21 01:31:50;;;;;;;24.53;7.93;;;;;;;;;;5018739;28;20219;-73
2020/12/21 01:34:16;;;;;;;21.13;7.33;;;;;;;;;;5029208;28;20689;-73
2020/12/21 01:36:42;;;;;;;31.07;7.90;;;;;;;;;;5017517;28;20521;-73
2020/12/21 01:39:08;;;;;;;21.77;6.87;;;;;;;;;;5026446;28;20591;-74
2020/12/21 01:41:34;;;;;;;22.60;7.97;;;;;;;;;;5024552;28;20182;-73
2020/12/21 01:43:59;;;;;;;28.23;7.80;;;;;;;;;;5010295;28;20202;-73
2020/12/21 01:46:26;;;;;;;19.90;7.57;;;;;;;;;;5025946;28;20537;-73
2020/12/21 01:48:52;;;;;;;18.53;7.13;;;;;;;;;;5017126;28;20590;-73
2020/12/21 01:51:22;;;;;;;21.20;8.23;;;;;;;;;;5024117;28;20273;-73
2020/12/21 01:53:49;;;;;;;19.93;7.27;;;;;;;;;;5018324;28;20210;-73
2020/12/21 01:56:16;;;;;;;17.80;7.07;;;;;;;;;;5026707;28;20190;-73
2020/12/21 01:58:42;;;;;;;26.30;7.90;;;;;;;;;;5019666;28;20213;-73
2020/12/21 02:01:11;;;;;;;27.43;7.70;;;;;;;;;;5025354;28;20213;-73
2020/12/21 02:03:37;;;;;;;24.50;8.43;;;;;;;;;;5019354;28;20190;-73
2020/12/21 02:06:02;;;;;;;24.63;7.53;;;;;;;;;;5025973;28;20656;-73
2020/12/21 02:08:27;;;;;;;24.43;8.47;;;;;;;;;;5020287;28;20544;-73
2020/12/21 02:10:53;;;;;;;18.77;7.67;;;;;;;;;;5026922;28;20182;-73
2020/12/21 02:13:18;;;;;;;20.33;7.00;;;;;;;;;;5032920;28;20213;-74
2020/12/21 02:15:43;;;;;;;25.70;7.00;;;;;;;;;;5021579;28;20194;-73
2020/12/21 02:18:09;;;;;;;24.30;8.17;;;;;;;;;;5028488;28;20546;-73
2020/12/21 02:20:34;;;;;;;21.20;7.90;;;;;;;;;;5014208;28;20195;-73
2020/12/21 02:23:00;;;;;;;27.27;7.73;;;;;;;;;;5028345;28;20767;-73
2020/12/21 02:25:25;;;;;;;28.37;8.83;;;;;;;;;;5016647;28;20642;-73
2020/12/21 02:27:50;;;;;;;23.37;8.63;;;;;;;;;;5027816;28;20181;-73
2020/12/21 02:30:16;;;;;;;21.03;7.97;;;;;;;;;;5017718;28;20194;-73
2020/12/21 02:32:42;;;;;;;21.10;8.03;;;;;;;;;;5025997;28;20421;-73
2020/12/21 02:35:08;;;;;;;25.97;8.83;;;;;;;;;;5014912;28;20226;-73
2020/12/21 02:37:33;;;;;;;27.13;8.40;;;;;;;;;;5023248;28;20186;-73
2020/12/21 02:39:59;;;;;;;21.40;8.50;;;;;;;;;;5013041;28;20228;-73
2020/12/21 02:42:24;;;;;;;17.83;7.10;;;;;;;;;;5028656;28;20335;-73
2020/12/21 02:44:49;;;;;;;27.67;8.40;;;;;;;;;;5018135;28;20183;-73
2020/12/21 02:47:15;;;;;;;26.57;7.90;;;;;;;;;;5025331;28;20204;-73
2020/12/21 02:49:40;;;;;;;26.80;8.20;;;;;;;;;;5022441;28;20182;-73
2020/12/21 02:52:05;;;;;;;21.20;7.97;;;;;;;;;;5015921;28;20612;-73
2020/12/21 02:54:31;;;;;;;26.17;8.70;;;;;;;;;;5023618;28;20207;-73
2020/12/21 02:56:56;;;;;;;25.13;8.60;;;;;;;;;;5021057;28;20304;-73
2020/12/21 02:59:21;;;;;;;21.37;7.30;;;;;;;;;;5024735;28;20186;-72
2020/12/21 03:01:47;;;;;;;25.13;7.33;;;;;;;;;;5016099;28;20190;-73
2020/12/21 03:04:13;;;;;;;27.27;7.53;;;;;;;;;;5026132;28;20305;-73
2020/12/21 03:06:38;;;;;;;24.37;6.60;;;;;;;;;;5015928;28;20603;-73
2020/12/21 03:09:04;;;;;;;24.57;8.07;;;;;;;;;;5023400;28;20243;-73
2020/12/21 03:11:29;;;;;;;21.07;7.37;;;;;;;;;;5019370;28;20198;-73
2020/12/21 03:13:55;;;;;;;27.97;7.90;;;;;;;;;;5020799;28;20249;-73
2020/12/21 03:16:23;;;;;;;24.30;7.37;;;;;;;;;;5027092;28;20186;-73
2020/12/21 03:18:48;;;;;;;22.50;8.37;;;;;;;;;;5015837;28;20521;-73
2020/12/21 03:21:14;;;;;;;23.10;7.30;;;;;;;;;;5017247;28;20196;-74
2020/12/21 03:23:39;;;;;;;22.43;6.17;;;;;;;;;;5015976;28;20186;-73
2020/12/21 03:26:06;;;;;;;26.10;7.43;;;;;;;;;;5027156;28;20182;-74
2020/12/21 03:28:32;;;;;;;21.20;6.80;;;;;;;;;;5015794;28;20194;-74
2020/12/21 03:30:57;;;;;;;21.00;6.60;;;;;;;;;;5027841;28;20202;-73
2020/12/21 03:33:22;;;;;;;19.67;7.70;;;;;;;;;;5013922;28;20237;-74
2020/12/21 03:35:48;;;;;;;20.97;8.03;;;;;;;;;;5023054;28;20234;-73
2020/12/21 03:38:13;;;;;;;19.97;7.57;;;;;;;;;;5012602;28;20185;-73
2020/12/21 03:40:38;;;;;;;23.60;6.90;;;;;;;;;;5028558;28;20232;-73
2020/12/21 03:43:04;;;;;;;23.70;7.30;;;;;;;;;;5014457;28;20568;-73
2020/12/21 03:45:30;;;;;;;20.90;6.80;;;;;;;;;;5026374;28;20565;-73
2020/12/21 03:47:55;;;;;;;23.17;6.80;;;;;;;;;;5026089;28;20182;-74
2020/12/21 03:50:20;;;;;;;20.10;6.77;;;;;;;;;;5019947;28;20189;-74
2020/12/21 03:52:46;;;;;;;15.10;5.70;;;;;;;;;;5029674;28;20264;-74
2020/12/21 03:55:11;;;;;;;14.77;5.83;;;;;;;;;;5022820;28;20214;-73
2020/12/21 03:57:37;;;;;;;23.40;6.33;;;;;;;;;;5025473;28;20190;-73
2020/12/21 04:00:05;;;;;;;18.93;6.07;;;;;;;;;;5020836;28;20200;-73
2020/12/21 04:02:33;;;;;;;25.70;7.23;;;;;;;;;;5026777;28;20194;-73
2020/12/21 04:05:00;;;;;;;19.47;6.07;;;;;;;;;;5012261;28;20183;-73
2020/12/21 04:07:25;;;;;;;25.13;6.60;;;;;;;;;;5019202;28;20264;-74
2020/12/21 04:09:50;;;;;;;24.47;6.47;;;;;;;;;;5018531;28;20229;-73
2020/12/21 04:12:16;;;;;;;23.40;6.10;;;;;;;;;;5030730;28;20208;-73
2020/12/21 04:14:41;;;;;;;25.00;6.13;;;;;;;;;;5021249;28;20213;-73
2020/12/21 04:17:06;;;;;;;20.50;5.30;;;;;;;;;;5027313;28;20587;-73
2020/12/21 04:19:32;;;;;;;25.93;6.37;;;;;;;;;;5030767;28;20592;-73
2020/12/21 04:21:57;;;;;;;14.17;5.93;;;;;;;;;;5020372;28;20217;-73
2020/12/21 04:24:22;;;;;;;21.07;6.03;;;;;;;;;;5022514;28;20193;-74
2020/12/21 04:26:48;;;;;;;29.07;7.37;;;;;;;;;;5035763;28;20214;-73
2020/12/21 04:29:13;;;;;;;24.43;6.37;;;;;;;;;;5026852;28;20198;-73
2020/12/21 04:31:38;;;;;;;17.93;6.10;;;;;;;;;;5019921;28;20549;-73
2020/12/21 04:34:03;;;;;;;25.80;6.33;;;;;;;;;;5028979;28;20230;-73
2020/12/21 04:36:29;;;;;;;16.73;5.50;;;;;;;;;;5019112;28;20194;-73
2020/12/21 04:38:54;;;;;;;23.87;6.47;;;;;;;;;;5030471;28;20174;-73
2020/12/21 04:41:20;;;;;;;20.27;6.90;;;;;;;;;;5019029;28;20182;-73
2020/12/21 04:43:46;;;;;;;26.67;7.33;;;;;;;;;;5031380;28;20182;-73
2020/12/21 04:46:11;;;;;;;21.30;7.10;;;;;;;;;;5019228;28;20208;-74
2020/12/21 04:48:39;;;;;;;16.30;6.90;;;;;;;;;;5024933;28;20183;-73
2020/12/21 04:51:05;;;;;;;21.77;6.63;;;;;;;;;;5028313;28;20197;-73
2020/12/21 04:53:30;;;;;;;20.53;6.27;;;;;;;;;;5019376;28;20225;-74
2020/12/21 04:55:56;;;;;;;21.23;5.70;;;;;;;;;;5029248;28;20715;-73
2020/12/21 04:58:21;;;;;;;23.30;6.33;;;;;;;;;;5020016;28;20248;-73
2020/12/21 05:00:46;;;;;;;15.83;5.43;;;;;;;;;;5027494;28;20221;-73
2020/12/21 05:03:12;;;;;;;22.67;5.93;;;;;;;;;;5017581;28;20719;-73
2020/12/21 05:05:42;;;;;;;16.20;5.80;;;;;;;;;;5026374;28;20182;-73
2020/12/21 05:08:13;;;;;;;16.33;6.97;;;;;;;;;;5013292;28;20193;-73
2020/12/21 05:11:03;;;;;;;19.90;6.50;;;;;;;;;;5029478;28;20174;-74
2020/12/21 05:13:30;;;;;;;23.70;6.83;;;;;;;;;;5031472;28;20218;-73
2020/12/21 05:15:56;;;;;;;18.17;6.57;;;;;;;;;;5024233;28;20229;-73
2020/12/21 05:18:24;;;;;;;22.30;6.57;;;;;;;;;;5015698;28;20288;-73
2020/12/21 05:20:55;;;;;;;14.83;7.37;;;;;;;;;;5027181;28;20568;-73
2020/12/21 05:23:21;;;;;;;20.67;6.73;;;;;;;;;;5017382;28;20225;-74
2020/12/21 05:26:16;;;;;;;21.63;6.10;;;;;;;;;;5026584;28;20781;-74
2020/12/21 05:28:41;;;;;;;23.13;7.90;;;;;;;;;;5014586;28;20314;-73
2020/12/21 05:31:09;;;;;;;23.50;7.00;;;;;;;;;;5030719;28;20757;-73
2020/12/21 05:33:40;;;;;;;22.10;7.27;;;;;;;;;;5019755;28;20606;-73
2020/12/21 05:36:10;;;;;;;18.10;7.00;;;;;;;;;;5026718;28;20220;-73
2020/12/21 05:38:36;;;;;;;25.83;7.03;;;;;;;;;;5021714;28;20186;-73
2020/12/21 05:41:13;;;;;;;20.77;6.10;;;;;;;;;;5016194;28;20638;-73
2020/12/21 05:43:40;;;;;;;19.77;6.47;;;;;;;;;;5021381;28;20186;-73
2020/12/21 05:46:18;;;;;;;20.77;6.50;;;;;;;;;;5030415;28;20313;-73
2020/12/21 05:48:45;;;;;;;16.43;5.53;;;;;;;;;;5023274;28;20584;-73
2020/12/21 05:51:23;;;;;;;18.80;6.00;;;;;;;;;;5018030;28;20197;-73
2020/12/21 05:53:52;;;;;;;15.87;5.97;;;;;;;;;;5024496;28;20193;-73
2020/12/21 05:56:23;;;;;;;16.93;5.80;;;;;;;;;;5012448;28;20186;-73
2020/12/21 05:58:49;;;;;;;18.00;5.67;;;;;;;;;;5024279;28;20576;-73
2020/12/21 06:01:15;;;;;;;17.50;5.17;;;;;;;;;;5021794;28;20190;-74
2020/12/21 06:03:49;;;;;;;22.17;6.17;;;;;;;;;;5024841;28;20239;-73
2020/12/21 06:06:17;;;;;;;15.23;6.00;;;;;;;;;;5013564;28;20214;-75
2020/12/21 06:08:44;;;;;;;19.90;5.50;;;;;;;;;;5023558;28;20190;-73
2020/12/21 06:11:12;;;;;;;20.27;5.23;;;;;;;;;;5009931;28;20194;-73
2020/12/21 06:13:41;;;;;;;16.13;5.50;;;;;;;;;;5024671;28;20186;-73
2020/12/21 06:16:08;;;;;;;17.37;5.47;;;;;;;;;;5016204;28;20221;-73
2020/12/21 06:18:34;;;;;;;19.17;5.33;;;;;;;;;;5020879;28;20186;-73
2020/12/21 06:20:59;;;;;;;20.33;5.70;;;;;;;;;;5019405;28;20219;-73
2020/12/21 06:23:37;;;;;;;16.17;4.90;;;;;;;;;;5025817;28;20171;-73
2020/12/21 06:26:15;;;;;;;16.00;5.43;;;;;;;;;;5023157;28;20239;-73
2020/12/21 06:28:40;;;;;;;25.77;5.03;;;;;;;;;;5007457;28;20202;-74
2020/12/21 06:31:19;;;;;;;21.53;6.63;;;;;;;;;;5022618;28;20194;-74
2020/12/21 06:33:46;;;;;;;25.77;5.87;;;;;;;;;;5010994;28;20264;-73
2020/12/21 06:36:12;;;;;;;23.97;5.70;;;;;;;;;;4323016;28;10000706;-73
2020/12/21 06:38:45;;;;;;;17.23;5.67;;;;;;;;;;5010408;28;20660;-73
2020/12/21 06:41:18;;;;;;;16.20;5.50;;;;;;;;;;5017402;28;20193;-74
2020/12/21 06:43:54;;;;;;;15.07;5.67;;;;;;;;;;5007091;28;20190;-73
2020/12/21 06:46:20;;;;;;;22.83;5.60;;;;;;;;;;5013419;28;20189;-74
2020/12/21 06:49:04;;;;;;;12.93;4.97;;;;;;;;;;5006867;28;20201;-73
2020/12/21 06:51:30;;;;;;;15.37;4.50;;;;;;;;;;5018650;28;20232;-74
2020/12/21 06:53:57;;;;;;;13.90;4.60;;;;;;;;;;5008095;28;20230;-73
2020/12/21 06:56:26;;;;;;;13.43;4.20;;;;;;;;;;5018164;28;20201;-74
2020/12/21 06:58:52;;;;;;;17.40;4.90;;;;;;;;;;5006330;28;20208;-73
2020/12/21 07:01:17;;;;;;;21.20;4.83;;;;;;;;;;5016961;28;20182;-74
2020/12/21 07:03:43;;;;;;;15.90;4.50;;;;;;;;;;5006684;28;20201;-73
2020/12/21 07:06:09;;;;;;;10.07;4.33;;;;;;;;;;5022354;28;20666;-73
2020/12/21 07:08:34;;;;;;;18.93;5.23;;;;;;;;;;5009534;28;20209;-74
2020/12/21 07:11:00;;;;;;;12.17;5.27;;;;;;;;;;5013665;28;20198;-74
2020/12/21 07:13:25;;;;;;;15.93;4.50;;;;;;;;;;5018728;28;20230;-73
2020/12/21 07:15:56;;;;;;;19.13;4.63;;;;;;;;;;5022885;28;20610;-73
2020/12/21 07:18:22;;;;;;;12.03;4.20;;;;;;;;;;5020544;28;20190;-73
2020/12/21 07:20:47;;;;;;;21.20;4.97;;;;;;;;;;5011204;28;20684;-74
2020/12/21 07:23:12;;;;;;;14.67;4.70;;;;;;;;;;5018727;28;20212;-74
2020/12/21 07:25:48;;;;;;;18.17;4.93;;;;;;;;;;5012961;28;20190;-74
2020/12/21 07:28:30;;;;;;;19.27;4.90;;;;;;;;;;5021826;28;20307;-73
2020/12/21 07:31:15;;;;;;;15.93;5.33;;;;;;;;;;5010308;28;20292;-74
2020/12/21 07:34:00;;;;;;;17.07;4.97;;;;;;;;;;5001172;28;525134;-73
2020/12/21 07:36:27;;;;;;;16.13;5.50;;;;;;;;;;5011827;28;20254;-74
2020/12/21 07:39:05;;;;;;;20.77;5.53;;;;;;;;;;5018217;28;20220;-73
2020/12/21 07:41:33;;;;;;;16.00;5.27;;;;;;;;;;5009674;28;20194;-74
2020/12/21 07:44:22;;;;;;;15.47;4.80;;;;;;;;;;5033328;28;20289;-74
2020/12/21 07:47:06;;;;;;;13.57;4.83;;;;;;;;;;5010630;28;20195;-73
2020/12/21 07:49:33;;;;;;;22.07;4.90;;;;;;;;;;5020312;28;20186;-73
2020/12/21 07:52:01;;;;;;;18.67;5.70;;;;;;;;;;5012007;28;20229;-74
2020/12/21 07:54:28;;;;;;;19.00;5.37;;;;;;;;;;5018439;28;20202;-73
2020/12/21 07:57:04;;;;;;;17.00;5.23;;;;;;;;;;5003700;28;20216;-74
2020/12/21 07:59:29;;;;;;;19.27;4.93;;;;;;;;;;5017441;28;20196;-73
2020/12/21 08:01:58;;;;;;;14.50;5.10;;;;;;;;;;5008494;28;20203;-74
2020/12/21 08:04:23;;;;;;;17.57;5.00;;;;;;;;;;5033604;28;20190;-73
2020/12/21 08:06:48;;;;;;;13.33;5.33;;;;;;;;;;5012545;28;20304;-73
2020/12/21 08:09:14;;;;;;;13.43;4.57;;;;;;;;;;5014727;28;20265;-74
2020/12/21 08:11:40;;;;;;;15.87;4.93;;;;;;;;;;5006589;28;20250;-74
2020/12/21 08:14:15;;;;;;;24.23;6.07;;;;;;;;;;5011685;28;20198;-73
2020/12/21 08:16:40;;;;;;;19.07;5.63;;;;;;;;;;5018496;28;20267;-74
2020/12/21 08:19:10;;;;;;;16.83;5.63;;;;;;;;;;5011019;28;20503;-74
2020/12/21 08:21:36;;;;;;;15.70;5.73;;;;;;;;;;5015110;28;20183;-74
2020/12/21 08:24:01;;;;;;;19.53;5.97;;;;;;;;;;5008681;28;20194;-74
2020/12/21 08:26:27;;;;;;;24.73;5.67;;;;;;;;;;5016030;28;20672;-74
2020/12/21 08:28:54;;;;;;;20.77;6.43;;;;;;;;;;5009401;28;20187;-74
2020/12/21 08:31:21;;;;;;;16.27;5.90;;;;;;;;;;5021862;28;20198;-74
2020/12/21 08:34:01;;;;;;;21.30;6.47;;;;;;;;;;5011938;28;20210;-74
2020/12/21 08:36:34;;;;;;;25.03;6.67;;;;;;;;;;5020391;28;20525;-74
2020/12/21 08:39:10;;;;;;;14.73;5.87;;;;;;;;;;5009884;28;20208;-74
2020/12/21 08:41:59;;;;;;;20.37;5.70;;;;;;;;;;5017867;28;20193;-74
2020/12/21 08:44:26;;;;;;;12.80;5.60;;;;;;;;;;5006028;28;20692;-74
2020/12/21 08:46:54;;;;;;;10.97;5.03;;;;;;;;;;5019056;28;20178;-74
2020/12/21 08:49:20;;;;;;;23.43;7.10;;;;;;;;;;5016139;28;20186;-74
2020/12/21 08:51:47;;;;;;;18.80;5.40;;;;;;;;;;5017477;28;20490;-74
2020/12/21 08:54:12;;;;;;;17.97;5.27;;;;;;;;;;5021834;28;20210;-73
2020/12/21 08:56:38;;;;;;;15.83;5.33;;;;;;;;;;5018994;28;20195;-74
2020/12/21 08:59:04;;;;;;;15.13;5.10;;;;;;;;;;5013913;28;20194;-73
2020/12/21 09:01:29;;;;;;;15.73;5.37;;;;;;;;;;5015161;28;20186;-74
2020/12/21 09:03:54;;;;;;;17.47;4.57;;;;;;;;;;5010268;28;20197;-73
2020/12/21 09:06:21;;;;;;;15.13;5.07;;;;;;;;;;5007219;28;20209;-74
2020/12/21 09:08:48;;;;;;;17.13;5.27;;;;;;;;;;5015202;28;20219;-74
2020/12/21 09:11:20;;;;;;;14.47;4.47;;;;;;;;;;5010449;28;20712;-73
2020/12/21 09:13:47;;;;;;;18.67;4.50;;;;;;;;;;5015192;28;21080;-72
2020/12/21 09:16:16;;;;;;;14.10;4.43;;;;;;;;;;5011233;28;20285;-72
2020/12/21 09:18:42;;;;;;;15.63;4.87;;;;;;;;;;5023926;28;20613;-72
2020/12/21 09:21:07;;;;;;;25.17;5.60;;;;;;;;;;5015588;28;20209;-72
2020/12/21 09:23:32;;;;;;;14.77;3.93;;;;;;;;;;5024238;28;20269;-72
2020/12/21 09:25:58;;;;;;;17.10;4.50;;;;;;;;;;5015586;28;20187;-73
2020/12/21 09:28:23;;;;;;;13.53;3.53;;;;;;;;;;5027908;28;20182;-73
2020/12/21 09:30:48;;;;;;;17.30;3.70;;;;;;;;;;5018557;28;20191;-72
2020/12/21 09:33:13;;;;;;;20.07;4.10;;;;;;;;;;5029197;28;20325;-72
2020/12/21 09:35:39;;;;;;;10.63;3.80;;;;;;;;;;5024421;28;20716;-74
2020/12/21 09:38:04;;;;;;;14.80;3.23;;;;;;;;;;5031476;28;20213;-74
2020/12/21 09:40:29;;;;;;;13.03;3.53;;;;;;;;;;5024757;28;20186;-74
2020/12/21 09:42:55;;;;;;;12.63;3.63;;;;;;;;;;5018939;28;20233;-73
2020/12/21 09:45:21;;;;;;;12.07;3.60;;;;;;;;;;5024953;28;20182;-74
2020/12/21 09:47:46;;;;;;;11.53;3.33;;;;;;;;;;5021168;28;20205;-72
2020/12/21 09:50:12;;;;;;;10.13;3.10;;;;;;;;;;5026469;28;20557;-73
2020/12/21 09:52:38;;;;;;;14.60;3.37;;;;;;;;;;5019055;28;20650;-74
2020/12/21 09:55:03;;;;;;;13.90;3.27;;;;;;;;;;5025464;28;20216;-74
2020/12/21 09:57:29;;;;;;;11.23;3.07;;;;;;;;;;5016955;28;20240;-74
2020/12/21 09:59:54;;;;;;;12.30;3.30;;;;;;;;;;5025413;28;21349;-74
2020/12/21 10:02:19;;;;;;;13.33;3.17;;;;;;;;;;5018635;28;20723;-73
2020/12/21 10:04:45;;;;;;;12.13;3.13;;;;;;;;;;5013384;28;20198;-73
2020/12/21 10:07:10;;;;;;;18.33;2.87;;;;;;;;;;5021488;28;20202;-73
2020/12/21 10:09:35;;;;;;;14.07;3.40;;;;;;;;;;5011640;28;20652;-73
2020/12/21 10:12:01;;;;;;;14.53;3.70;;;;;;;;;;5016760;28;20236;-73
2020/12/21 10:14:26;;;;;;;13.23;2.97;;;;;;;;;;5012043;28;20259;-73
2020/12/21 10:16:53;;;;;;;10.37;2.93;;;;;;;;;;5021592;28;20182;-73
2020/12/21 10:19:18;;;;;;;9.97;2.97;;;;;;;;;;5013316;28;20190;-74
2020/12/21 10:21:44;;;;;;;13.67;3.37;;;;;;;;;;5017061;28;20185;-73
2020/12/21 10:24:09;;;;;;;10.23;3.00;;;;;;;;;;5016598;28;20193;-73
2020/12/21 10:26:38;;;;;;;11.53;2.90;;;;;;;;;;5021114;28;20200;-74
2020/12/21 10:29:04;;;;;;;10.33;2.70;;;;;;;;;;5015862;28;20182;-74
2020/12/21 10:31:29;;;;;;;11.40;2.87;;;;;;;;;;5014723;28;20195;-73
2020/12/21 10:33:55;;;;;;;8.97;2.90;;;;;;;;;;5014934;28;20269;-74
2020/12/21 10:36:20;;;;;;;16.40;3.03;;;;;;;;;;5022962;28;20193;-74
2020/12/21 10:38:47;;;;;;;13.20;3.10;;;;;;;;;;5021128;28;20202;-74
2020/12/21 10:41:12;;;;;;;9.53;2.60;;;;;;;;;;5017308;28;20340;-74
2020/12/21 10:43:37;;;;;;;8.63;2.83;;;;;;;;;;5019568;28;20257;-74
2020/12/21 10:46:03;;;;;;;21.03;3.23;;;;;;;;;;5011411;28;20189;-73
2020/12/21 10:48:28;;;;;;;10.77;3.27;;;;;;;;;;5018445;28;20258;-74
2020/12/21 10:50:54;;;;;;;11.63;3.00;;;;;;;;;;5013733;28;20182;-74
2020/12/21 10:53:20;;;;;;;11.07;3.57;;;;;;;;;;5022764;28;20186;-74
2020/12/21 10:55:45;;;;;;;11.93;2.90;;;;;;;;;;5013362;28;20596;-73
2020/12/21 10:58:11;;;;;;;8.87;3.00;;;;;;;;;;5020058;28;20597;-73
2020/12/21 11:00:36;;;;;;;14.77;3.27;;;;;;;;;;5010485;28;21241;-73
2020/12/21 11:03:02;;;;;;;8.63;3.20;;;;;;;;;;5020141;28;20193;-73
2020/12/21 11:05:28;;;;;;;14.43;3.20;;;;;;;;;;5027666;28;20190;-74
2020/12/21 11:07:54;;;;;;;12.37;3.40;;;;;;;;;;5011766;28;20707;-73
2020/12/21 11:10:19;;;;;;;10.90;3.40;;;;;;;;;;5024375;28;20178;-74
2020/12/21 11:12:44;;;;;;;13.63;3.17;;;;;;;;;;5016622;28;20550;-73
2020/12/21 11:15:10;;;;;;;12.63;3.53;;;;;;;;;;5023207;28;20213;-73
2020/12/21 11:17:35;;;;;;;13.40;3.30;;;;;;;;;;5014479;28;20182;-73
2020/12/21 11:20:02;;;;;;;9.27;2.67;;;;;;;;;;5020430;28;20701;-73
2020/12/21 11:22:27;;;;;;;16.13;3.20;;;;;;;;;;5012364;28;20328;-73
2020/12/21 11:24:52;;;;;;;11.57;2.97;;;;;;;;;;5014510;28;20304;-73
2020/12/21 11:27:18;;;;;;;12.57;3.30;;;;;;;;;;5014838;28;21678;-74
2020/12/21 11:29:43;;;;;;;12.37;3.13;;;;;;;;;;5022149;28;20344;-74
2020/12/21 11:32:09;;;;;;;9.30;2.83;;;;;;;;;;5012897;28;20190;-74
2020/12/21 11:34:34;;;;;;;13.90;3.20;;;;;;;;;;5017988;28;20673;-71
2020/12/21 11:36:59;;;;;;;10.87;3.17;;;;;;;;;;5023217;28;20284;-74
2020/12/21 11:39:25;;;;;;;9.23;2.80;;;;;;;;;;5013071;28;20696;-74
2020/12/21 11:41:50;;;;;;;8.33;3.20;;;;;;;;;;5020602;28;20186;-74
2020/12/21 11:44:15;;;;;;;10.17;3.33;;;;;;;;;;5017653;28;20209;-74
2020/12/21 11:46:41;;;;;;;10.57;2.97;;;;;;;;;;5018970;28;20273;-72
2020/12/21 11:49:06;;;;;;;12.03;3.23;;;;;;;;;;5014466;28;20236;-72
2020/12/21 11:51:31;;;;;;;10.80;3.23;;;;;;;;;;5017271;28;20269;-74
2020/12/21 11:53:57;;;;;;;11.27;2.80;;;;;;;;;;5008708;28;20219;-74
2020/12/21 11:56:22;;;;;;;11.57;3.40;;;;;;;;;;5021688;28;20698;-75
2020/12/21 11:58:48;;;;;;;12.00;3.07;;;;;;;;;;5010076;28;20186;-73
2020/12/21 12:01:18;;;;;;;14.57;3.33;;;;;;;;;;5017099;28;20182;-73
2020/12/21 12:03:43;;;;;;;12.53;3.57;;;;;;;;;;5012717;28;20670;-73
2020/12/21 12:06:09;;;;;;;9.33;2.93;;;;;;;;;;5021331;28;20205;-74
2020/12/21 12:08:34;;;;;;;13.27;3.40;;;;;;;;;;5022546;28;20649;-74
2020/12/21 12:11:00;;;;;;;11.93;3.20;;;;;;;;;;5015548;28;20194;-74
2020/12/21 12:13:25;;;;;;;9.73;3.17;;;;;;;;;;5025001;28;20182;-74
2020/12/21 12:15:51;;;;;;;12.97;3.30;;;;;;;;;;5012236;28;20581;-73
2020/12/21 12:18:16;;;;;;;10.70;3.50;;;;;;;;;;5027176;28;20240;-74
2020/12/21 12:20:42;;;;;;;13.93;3.40;;;;;;;;;;5016497;28;20236;-74
2020/12/21 12:23:07;;;;;;;11.93;3.40;;;;;;;;;;5025359;28;20291;-74
2020/12/21 12:25:33;;;;;;;14.17;3.80;;;;;;;;;;5014960;28;20591;-75
2020/12/21 12:27:58;;;;;;;13.63;3.50;;;;;;;;;;5021160;28;20225;-74
2020/12/21 12:30:23;;;;;;;15.67;3.60;;;;;;;;;;5017371;28;20192;-75
2020/12/21 12:32:49;;;;;;;16.27;3.63;;;;;;;;;;5020630;28;20281;-72
2020/12/21 12:35:14;;;;;;;9.73;3.30;;;;;;;;;;5016861;28;20222;-73
2020/12/21 12:37:39;;;;;;;11.43;3.77;;;;;;;;;;5021597;28;20212;-73
2020/12/21 12:40:05;;;;;;;15.80;3.43;;;;;;;;;;5027134;28;20533;-73
2020/12/21 12:42:30;;;;;;;12.23;3.20;;;;;;;;;;5018665;28;20544;-74
2020/12/21 12:44:55;;;;;;;13.90;3.37;;;;;;;;;;5021646;28;20191;-74
2020/12/21 12:47:21;;;;;;;9.83;3.20;;;;;;;;;;5015845;28;20309;-74
2020/12/21 12:49:46;;;;;;;11.80;3.60;;;;;;;;;;5022241;28;20257;-73
2020/12/21 12:52:11;;;;;;;14.57;3.80;;;;;;;;;;5016591;28;20547;-74
2020/12/21 12:54:38;;;;;;;17.03;3.80;;;;;;;;;;5027859;28;20268;-71
2020/12/21 12:57:03;;;;;;;13.87;3.80;;;;;;;;;;5017558;28;20191;-73
2020/12/21 12:59:28;;;;;;;13.93;3.50;;;;;;;;;;5023035;28;20261;-75
2020/12/21 13:01:54;;;;;;;15.37;3.33;;;;;;;;;;5015023;28;20194;-75
2020/12/21 13:04:19;;;;;;;9.40;3.23;;;;;;;;;;5024107;28;20277;-73
2020/12/21 13:06:44;;;;;;;11.10;3.20;;;;;;;;;;5015785;28;20601;-73
2020/12/21 13:09:09;;;;;;;9.87;3.00;;;;;;;;;;5024482;28;20213;-73
2020/12/21 13:11:35;;;;;;;12.17;2.83;;;;;;;;;;5027926;28;20642;-73
2020/12/21 13:14:00;;;;;;;11.03;2.73;;;;;;;;;;5028523;28;20210;-73
2020/12/21 13:16:25;;;;;;;13.03;2.87;;;;;;;;;;5028523;28;20554;-74
2020/12/21 13:18:51;;;;;;;11.53;3.13;;;;;;;;;;5019001;28;20193;-74
2020/12/21 13:21:18;;;;;;;11.13;2.80;;;;;;;;;;5030435;28;20182;-75
2020/12/21 13:23:44;;;;;;;11.03;2.83;;;;;;;;;;5016918;28;20193;-75
2020/12/21 13:26:13;;;;;;;11.37;3.50;;;;;;;;;;5018018;28;20849;-74
2020/12/21 13:28:39;;;;;;;8.30;2.80;;;;;;;;;;5018880;28;20198;-73
2020/12/21 13:31:04;;;;;;;13.73;3.00;;;;;;;;;;5027288;28;20545;-74
2020/12/21 13:33:29;;;;;;;11.70;2.50;;;;;;;;;;5032151;28;20251;-73
2020/12/21 13:35:55;;;;;;;12.03;2.70;;;;;;;;;;5027011;28;20707;-74
2020/12/21 13:38:20;;;;;;;7.03;3.13;;;;;;;;;;5018616;28;20182;-74
2020/12/21 13:40:45;;;;;;;15.23;3.20;;;;;;;;;;5024122;28;20653;-73
2020/12/21 13:43:11;;;;;;;13.73;3.00;;;;;;;;;;5025020;28;20196;-73
2020/12/21 13:45:36;;;;;;;13.60;3.00;;;;;;;;;;5015554;28;20212;-72
2020/12/21 13:48:01;;;;;;;13.77;2.97;;;;;;;;;;5026362;28;20232;-73
2020/12/21 13:50:26;;;;;;;13.50;3.40;;;;;;;;;;5018507;28;20197;-73
2020/12/21 13:52:52;;;;;;;9.53;3.00;;;;;;;;;;5027872;28;20186;-73
2020/12/21 13:55:18;;;;;;;9.57;2.63;;;;;;;;;;5013692;28;20241;-71
2020/12/21 13:57:43;;;;;;;9.73;2.43;;;;;;;;;;4672436;28;10000075;-72
2020/12/21 14:00:08;;;;;;;12.50;2.87;;;;;;;;;;5013527;28;20182;-71
2020/12/21 14:02:34;;;;;;;11.23;3.17;;;;;;;;;;5022362;28;20198;-72
2020/12/21 14:04:59;;;;;;;10.33;3.77;;;;;;;;;;5011725;28;20239;-73
2020/12/21 14:07:28;;;;;;;13.53;4.53;;;;;;;;;;5023796;28;20217;-75
2020/12/21 14:09:53;;;;;;;12.60;4.27;;;;;;;;;;5013961;28;20302;-74
2020/12/21 14:12:19;;;;;;;12.60;4.73;;;;;;;;;;5021320;28;20195;-74
2020/12/21 14:14:44;;;;;;;13.60;5.00;;;;;;;;;;5024099;28;20625;-73
2020/12/21 14:17:09;;;;;;;16.13;6.33;;;;;;;;;;5017025;28;20248;-73
2020/12/21 14:19:35;;;;;;;22.53;7.00;;;;;;;;;;5014820;28;20269;-73
2020/12/21 14:22:00;;;;;;;20.40;6.63;;;;;;;;;;5014525;28;20585;-72
2020/12/21 14:24:25;;;;;;;20.77;7.93;;;;;;;;;;5024752;28;20714;-73
2020/12/21 14:26:51;;;;;;;22.03;9.43;;;;;;;;;;5015070;28;20269;-73
2020/12/21 14:29:16;;;;;;;20.13;7.77;;;;;;;;;;5026898;28;20222;-74